Time;durP1;ratioP1;P1;durP2;ratioP2;P2;SDS_P1;SDS_P2;PMS_P1;PMS_P2;Temp;Humidity;BMP_temperature;BMP_pressure;BME280_temperature;BME280_humidity;BME280_pressure;Samples;Min_cycle;Max_cycle;Signal;HPM_P1;HPM_P2
2022/08/02 00:02:41;;;;;;;7.82;4.10;;;12.10;99.90;;;;;;5016942;28;20053;-93
2022/08/02 00:05:17;;;;;;;8.10;4.25;;;11.90;99.90;;;;;;5092481;23;20056;-90
2022/08/02 00:07:51;;;;;;;10.15;4.22;;;12.20;99.90;;;;;;5010728;28;20110;-91
2022/08/02 00:10:22;;;;;;;7.25;4.32;;;12.40;99.90;;;;;;5053887;28;20084;-92
2022/08/02 00:12:53;;;;;;;7.43;4.40;;;13.00;99.90;;;;;;5052155;28;20037;-89
2022/08/02 00:15:22;;;;;;;;;;;12.80;99.90;;;;;;5017986;28;20060;-95
2022/08/02 00:17:51;;;;;;;9.75;3.97;;;13.10;99.90;;;;;;5058253;28;19928;-89
2022/08/02 00:20:19;;;;;;;7.80;3.95;;;13.10;99.90;;;;;;5013183;28;20182;-91
2022/08/02 00:22:45;;;;;;;8.50;4.07;;;12.30;99.90;;;;;;5017157;28;20041;-94
2022/08/02 00:25:13;;;;;;;8.50;3.85;;;12.20;99.90;;;;;;5033530;28;20060;-93
2022/08/02 00:27:55;;;;;;;7.60;4.40;;;13.40;99.90;;;;;;5053018;28;20183;-89
2022/08/02 00:30:28;;;;;;;7.65;4.25;;;13.30;99.90;;;;;;5033165;28;20045;-92
2022/08/02 00:32:57;;;;;;;6.70;3.85;;;11.90;99.90;;;;;;5031660;28;20037;-91
2022/08/02 00:35:23;;;;;;;8.60;4.35;;;12.80;99.90;;;;;;5046312;28;20045;-93
2022/08/02 00:37:59;;;;;;;11.40;4.30;;;12.50;99.90;;;;;;5082009;28;20056;-89
2022/08/02 00:40:28;;;;;;;7.27;4.20;;;12.50;99.90;;;;;;5034648;28;20041;-94
2022/08/02 00:43:08;;;;;;;8.20;4.10;;;13.20;99.90;;;;;;5030764;28;20058;-92
2022/08/02 00:45:57;;;;;;;10.68;5.85;;;12.50;99.90;;;;;;5012456;28;20612;-94
2022/08/02 00:48:23;;;;;;;11.57;4.60;;;12.50;99.90;;;;;;5051804;28;20477;-93
2022/08/02 00:51:05;;;;;;;8.32;4.18;;;12.40;99.90;;;;;;5037236;28;20040;-94
2022/08/02 00:53:33;;;;;;;10.50;4.60;;;12.90;99.90;;;;;;5015299;28;20034;-91
2022/08/02 00:56:00;;;;;;;6.57;4.18;;;13.60;99.90;;;;;;5045004;28;20648;-94
2022/08/02 00:58:29;;;;;;;13.35;4.57;;;12.80;99.90;;;;;;5034030;28;20045;-93
2022/08/02 01:00:56;;;;;;;7.90;4.10;;;11.60;99.90;;;;;;5034506;28;20037;-90
2022/08/02 01:03:30;;;;;;;13.93;5.43;;;11.00;99.90;;;;;;5017207;28;20043;-94
2022/08/02 01:05:59;;;;;;;8.38;4.60;;;12.30;99.90;;;;;;5066427;28;20037;-92
2022/08/02 01:08:28;;;;;;;11.68;4.68;;;11.90;99.90;;;;;;5067150;28;20048;-92
2022/08/02 01:10:59;;;;;;;8.35;4.32;;;11.00;99.90;;;;;;5013787;28;20072;-88
2022/08/02 01:13:28;;;;;;;;;;;12.20;99.90;;;;;;5048442;28;20120;-90
2022/08/02 01:16:13;;;;;;;6.55;4.07;;;12.30;99.90;;;;;;5032371;28;19921;-91
2022/08/02 01:18:41;;;;;;;11.93;4.40;;;12.10;99.90;;;;;;5060512;28;20393;-91
2022/08/02 01:21:27;;;;;;;8.23;4.15;;;11.30;99.90;;;;;;4996937;28;20077;-95
2022/08/02 01:24:12;;;;;;;6.18;4.20;;;12.10;99.90;;;;;;5017282;28;20051;-91
2022/08/02 01:26:46;;;;;;;13.20;4.28;;;12.20;99.90;;;;;;5043974;28;20041;-91
2022/08/02 01:29:33;;;;;;;9.40;5.10;;;12.10;99.90;;;;;;5045903;28;20049;-94
2022/08/02 01:32:10;;;;;;;12.95;4.55;;;12.30;99.90;;;;;;5062133;28;20021;-90
2022/08/02 01:34:49;;;;;;;9.10;4.30;;;12.20;99.90;;;;;;5049900;28;20049;-94
2022/08/02 01:37:21;;;;;;;12.18;4.75;;;12.10;99.90;;;;;;5048218;28;20021;-94
2022/08/02 01:39:53;;;;;;;6.63;4.65;;;12.40;99.90;;;;;;5017052;28;20025;-94
2022/08/02 01:42:24;;;;;;;17.83;5.40;;;12.10;99.90;;;;;;5000601;28;20048;-92
2022/08/02 01:44:52;;;;;;;9.30;4.50;;;12.30;99.90;;;;;;5028347;28;20558;-93
2022/08/02 01:47:22;;;;;;;11.02;4.72;;;12.20;99.90;;;;;;5020766;28;20434;-90
2022/08/02 01:49:50;;;;;;;10.05;5.75;;;10.80;99.90;;;;;;5026929;28;20044;-94
2022/08/02 01:52:23;;;;;;;16.02;5.20;;;12.30;99.90;;;;;;5028982;28;20073;-94
2022/08/02 01:55:08;;;;;;;10.82;4.95;;;11.50;99.90;;;;;;5016835;28;20057;-93
2022/08/02 01:57:37;;;;;;;11.55;5.07;;;12.80;99.90;;;;;;5045814;28;20071;-91
2022/08/02 02:00:04;;;;;;;8.45;4.90;;;12.30;99.90;;;;;;5035923;28;20056;-90
2022/08/02 02:02:30;;;;;;;8.98;5.00;;;12.00;99.90;;;;;;5035572;28;20057;-91
2022/08/02 02:04:55;;;;;;;11.10;5.45;;;12.10;99.90;;;;;;5020001;28;20068;-94
2022/08/02 02:07:21;;;;;;;15.98;6.00;;;12.10;99.90;;;;;;5036312;28;20579;-92
2022/08/02 02:09:50;;;;;;;9.65;5.53;;;12.00;99.90;;;;;;5019085;28;20052;-94
2022/08/02 02:12:16;;;;;;;10.23;5.47;;;12.00;99.90;;;;;;5019444;28;20055;-93
2022/08/02 02:14:42;;;;;;;13.15;5.78;;;12.00;99.90;;;;;;5018568;28;20045;-92
2022/08/02 02:17:07;;;;;;;8.63;5.82;;;12.10;99.90;;;;;;5002205;28;20051;-94
2022/08/02 02:19:35;;;;;;;11.75;5.97;;;12.00;99.90;;;;;;5001795;28;20045;-90
2022/08/02 02:22:01;;;;;;;11.00;6.47;;;12.00;99.90;;;;;;4991398;28;20056;-92
2022/08/02 02:24:26;;;;;;;14.60;6.50;;;11.90;99.90;;;;;;5015335;28;20044;-92
2022/08/02 02:26:52;;;;;;;14.40;5.75;;;11.90;99.90;;;;;;5018628;28;20088;-93
2022/08/02 02:29:19;;;;;;;12.05;5.72;;;11.60;99.90;;;;;;4992389;28;20508;-91
2022/08/02 02:31:47;;;;;;;14.80;6.25;;;11.80;99.90;;;;;;5011659;28;20040;-91
2022/08/02 02:34:19;;;;;;;8.63;6.30;;;11.80;99.90;;;;;;5032979;28;20045;-90
2022/08/02 02:36:47;;;;;;;13.60;6.35;;;11.90;99.90;;;;;;5027892;28;20401;-92
2022/08/02 02:39:13;;;;;;;10.48;6.15;;;11.90;99.90;;;;;;5033810;28;20045;-91
2022/08/02 02:41:39;;;;;;;9.10;6.32;;;11.90;99.90;;;;;;5000162;28;20106;-92
2022/08/02 02:44:05;;;;;;;8.85;6.25;;;12.00;99.90;;;;;;5033566;28;20053;-92
2022/08/02 02:46:31;;;;;;;12.73;6.35;;;11.90;99.90;;;;;;5034622;28;20041;-92
2022/08/02 02:48:57;;;;;;;9.23;6.35;;;11.90;99.90;;;;;;5001624;28;20088;-91
2022/08/02 02:51:23;;;;;;;9.98;5.82;;;11.90;99.90;;;;;;5006793;28;20144;-93
2022/08/02 02:53:49;;;;;;;11.35;6.30;;;11.60;99.90;;;;;;5012894;28;20489;-94
2022/08/02 02:56:18;;;;;;;11.38;5.68;;;13.00;99.90;;;;;;5013354;28;20562;-94
2022/08/02 02:58:47;;;;;;;11.27;6.20;;;11.50;99.90;;;;;;5030757;28;20041;-91
2022/08/02 03:01:29;;;;;;;12.23;6.03;;;11.60;99.90;;;;;;5035742;28;20079;-94
2022/08/02 03:04:13;;;;;;;9.60;5.68;;;11.90;99.90;;;;;;5042221;28;20053;-90
2022/08/02 03:06:45;;;;;;;8.80;5.85;;;12.20;99.90;;;;;;5022110;28;20049;-95
2022/08/02 03:09:11;;;;;;;10.25;5.40;;;12.10;99.90;;;;;;5039794;28;20041;-90
2022/08/02 03:11:39;;;;;;;10.77;5.38;;;12.00;99.90;;;;;;5030891;28;20045;-93
2022/08/02 03:14:20;;;;;;;11.20;6.45;;;13.00;99.90;;;;;;5057145;28;20032;-90
2022/08/02 03:16:57;;;;;;;14.43;5.53;;;11.70;99.90;;;;;;5057510;28;20045;-92
2022/08/02 03:19:25;;;;;;;13.95;7.13;;;12.00;99.90;;;;;;5010688;28;20401;-96
2022/08/02 03:21:54;;;;;;;10.90;6.63;;;12.00;99.90;;;;;;5031072;28;20053;-95
2022/08/02 03:24:20;;;;;;;9.88;5.78;;;12.00;99.90;;;;;;5026530;28;20037;-95
2022/08/02 03:26:46;;;;;;;9.93;5.97;;;12.10;99.90;;;;;;5009634;28;20056;-95
2022/08/02 03:29:17;;;;;;;11.43;6.57;;;12.20;99.90;;;;;;5050977;28;20037;-94
2022/08/02 03:31:44;;;;;;;10.60;6.05;;;11.60;99.90;;;;;;5022174;28;20041;-94
2022/08/02 03:34:13;;;;;;;11.63;6.10;;;12.00;99.90;;;;;;5018877;28;20174;-92
2022/08/02 03:36:45;;;;;;;12.55;6.55;;;12.10;99.90;;;;;;5029814;28;20052;-93
2022/08/02 03:39:11;;;;;;;14.65;6.35;;;11.40;99.90;;;;;;5050147;28;20041;-91
2022/08/02 03:41:40;;;;;;;9.82;6.22;;;12.00;99.90;;;;;;5026280;28;20047;-93
2022/08/02 03:44:06;;;;;;;13.65;6.22;;;12.80;99.90;;;;;;5038616;28;20034;-90
2022/08/02 03:46:32;;;;;;;11.15;6.60;;;12.00;99.90;;;;;;5131793;23;20055;-89
2022/08/02 03:48:57;;;;;;;13.45;6.82;;;11.90;99.90;;;;;;5051517;28;20467;-92
2022/08/02 03:51:26;;;;;;;10.88;6.40;;;11.90;99.90;;;;;;5042555;28;20071;-92
2022/08/02 03:53:57;;;;;;;9.63;6.60;;;12.10;99.90;;;;;;5030703;28;20055;-91
2022/08/02 03:56:25;;;;;;;9.75;5.80;;;10.90;99.90;;;;;;5063253;28;20041;-90
2022/08/02 03:59:05;;;;;;;10.80;6.85;;;11.90;99.90;;;;;;5047306;28;20037;-90
2022/08/02 04:01:31;;;;;;;12.02;6.63;;;12.00;99.90;;;;;;5071746;28;20041;-94
2022/08/02 04:03:57;;;;;;;12.60;6.45;;;11.10;99.90;;;;;;5069927;28;20529;-93
2022/08/02 04:06:25;;;;;;;11.05;6.55;;;11.80;99.90;;;;;;5036753;28;20059;-94
2022/08/02 04:08:54;;;;;;;13.10;6.85;;;11.90;99.90;;;;;;5073852;28;20040;-92
2022/08/02 04:11:34;;;;;;;17.15;6.75;;;12.90;99.90;;;;;;5071010;28;20083;-94
2022/08/02 04:14:08;;;;;;;12.45;6.70;;;11.20;99.90;;;;;;5033027;28;20044;-95
2022/08/02 04:16:42;;;;;;;12.73;6.63;;;12.10;99.90;;;;;;5030936;28;20055;-94
2022/08/02 04:19:09;;;;;;;11.80;7.50;;;12.10;99.90;;;;;;5067983;28;20261;-93
2022/08/02 04:21:36;;;;;;;14.25;6.90;;;12.20;99.90;;;;;;5069015;28;20489;-94
2022/08/02 04:24:05;;;;;;;11.27;6.35;;;12.30;99.90;;;;;;5054207;28;20049;-95
2022/08/02 04:26:35;;;;;;;10.95;5.95;;;11.90;99.90;;;;;;5065836;28;20052;-95
2022/08/02 04:29:01;;;;;;;12.43;6.57;;;12.10;99.90;;;;;;5016879;28;20118;-95
2022/08/02 04:31:29;;;;;;;12.05;6.40;;;12.30;99.90;;;;;;5067210;28;20123;-94
2022/08/02 04:34:02;;;;;;;11.18;6.60;;;12.40;99.90;;;;;;5074703;28;20044;-95
2022/08/02 04:36:28;;;;;;;13.47;5.90;;;11.50;99.90;;;;;;5074920;28;20063;-94
2022/08/02 04:39:16;;;;;;;12.77;6.07;;;12.60;99.90;;;;;;5056845;28;20307;-94
2022/08/02 04:41:48;;;;;;;10.40;5.63;;;12.90;99.90;;;;;;5063601;28;20074;-94
2022/08/02 04:44:14;;;;;;;11.48;5.57;;;12.90;99.90;;;;;;5063776;28;20270;-90
2022/08/02 04:46:45;;;;;;;10.20;5.40;;;13.30;99.90;;;;;;5040388;28;20103;-94
2022/08/02 04:49:13;;;;;;;8.75;5.38;;;12.30;99.90;;;;;;5037293;28;20072;-93
2022/08/02 04:51:40;;;;;;;7.00;4.50;;;14.10;99.90;;;;;;5051560;28;20100;-90
2022/08/02 04:54:09;;;;;;;5.93;4.13;;;14.80;99.90;;;;;;5081153;28;20412;-93
2022/08/02 04:56:36;;;;;;;13.25;4.78;;;15.20;99.90;;;;;;5098443;23;20121;-91
2022/08/02 04:59:02;;;;;;;10.57;4.50;;;15.70;99.90;;;;;;5057793;28;20021;-91
2022/08/02 05:01:41;;;;;;;;;;;;;;;;;;;;;
2022/08/02 05:04:07;;;;;;;10.25;4.03;;;16.30;99.90;;;;;;5041847;28;20036;-93
2022/08/02 05:06:33;;;;;;;7.82;4.00;;;15.30;99.90;;;;;;5004318;28;20045;-94
2022/08/02 05:08:59;;;;;;;9.75;3.80;;;17.30;99.90;;;;;;5014240;28;20046;-94
2022/08/02 05:11:24;;;;;;;12.35;4.43;;;17.80;99.90;;;;;;4999545;28;20052;-94
2022/08/02 05:13:50;;;;;;;8.45;3.85;;;18.50;99.90;;;;;;4984684;28;20045;-93
2022/08/02 05:16:16;;;;;;;5.75;3.42;;;18.60;99.90;;;;;;4982143;28;20057;-94
2022/08/02 05:18:44;;;;;;;6.80;3.78;;;18.40;99.90;;;;;;5012593;28;20042;-94
2022/08/02 05:21:13;;;;;;;7.28;4.25;;;17.20;99.90;;;;;;5032621;28;20401;-94
2022/08/02 05:23:39;;;;;;;7.63;3.70;;;18.70;99.90;;;;;;5034855;28;20053;-93
2022/08/02 05:26:07;;;;;;;7.97;3.33;;;19.00;99.90;;;;;;5018086;28;20142;-92
2022/08/02 05:28:33;;;;;;;8.48;3.65;;;19.30;99.90;;;;;;4989079;28;20037;-91
2022/08/02 05:30:59;;;;;;;8.90;3.40;;;18.80;99.90;;;;;;5019631;28;20047;-94
2022/08/02 05:33:24;;;;;;;8.65;3.30;;;19.20;99.90;;;;;;5010151;28;20088;-94
2022/08/02 05:35:52;;;;;;;5.60;2.92;;;20.20;99.90;;;;;;5000729;28;20099;-94
2022/08/02 05:38:18;;;;;;;5.15;2.92;;;20.20;99.90;;;;;;5044867;28;20051;-94
2022/08/02 05:40:47;;;;;;;7.20;3.10;;;19.70;99.90;;;;;;4979250;28;20105;-94
2022/08/02 05:43:13;;;;;;;5.03;3.00;;;20.20;99.90;;;;;;5017015;28;20053;-95
2022/08/02 05:45:39;;;;;;;8.90;2.97;;;20.50;99.90;;;;;;5019390;28;20064;-94
2022/08/02 05:48:08;;;;;;;8.20;3.13;;;20.80;99.90;;;;;;5000807;28;20053;-94
2022/08/02 05:50:37;;;;;;;6.88;2.92;;;20.90;99.90;;;;;;4999747;28;20053;-91
2022/08/02 05:53:12;;;;;;;6.38;2.78;;;20.70;99.90;;;;;;5015930;28;20075;-95
2022/08/02 05:55:41;;;;;;;5.57;3.00;;;21.10;99.90;;;;;;5016037;28;20460;-93
2022/08/02 05:58:13;;;;;;;6.80;3.03;;;21.40;99.90;;;;;;5008259;28;20469;-91
2022/08/02 06:00:40;;;;;;;5.18;2.80;;;21.80;99.90;;;;;;5024193;28;20054;-93
2022/08/02 06:03:30;;;;;;;9.93;3.22;;;21.70;99.90;;;;;;4993739;28;20111;-94
2022/08/02 06:06:05;;;;;;;7.05;3.38;;;21.50;99.90;;;;;;5004490;28;20045;-91
2022/08/02 06:08:41;;;;;;;8.38;2.60;;;21.90;99.90;;;;;;4996324;28;20124;-93
2022/08/02 06:11:10;;;;;;;7.50;3.10;;;22.20;99.90;;;;;;4997422;28;20061;-91
2022/08/02 06:13:36;;;;;;;5.90;2.70;;;21.80;99.90;;;;;;4999108;28;20052;-89
2022/08/02 06:16:04;;;;;;;7.63;2.65;;;22.40;99.90;;;;;;4980619;28;20409;-90
2022/08/02 06:18:30;;;;;;;8.30;3.05;;;22.60;99.90;;;;;;4984156;28;20034;-93
2022/08/02 06:21:01;;;;;;;7.68;2.47;;;23.30;99.90;;;;;;4979659;28;20100;-92
2022/08/02 06:23:29;;;;;;;6.30;2.65;;;23.10;99.90;;;;;;4990627;28;20482;-93
2022/08/02 06:25:58;;;;;;;7.53;2.72;;;22.70;99.90;;;;;;4998392;28;20050;-93
2022/08/02 06:28:24;;;;;;;5.60;2.45;;;23.10;99.90;;;;;;4996279;28;20049;-91
2022/08/02 06:30:50;;;;;;;6.18;2.47;;;23.60;99.90;;;;;;4997497;28;20049;-93
2022/08/02 06:33:15;;;;;;;4.10;2.25;;;24.00;99.90;;;;;;4982251;28;20076;-93
2022/08/02 06:36:29;;;;;;;4.70;2.20;;;23.80;99.90;;;;;;5014511;28;20587;-93
2022/08/02 06:39:02;;;;;;;4.90;2.57;;;23.80;99.90;;;;;;5013170;28;20168;-91
2022/08/02 06:41:30;;;;;;;7.65;2.58;;;24.10;99.90;;;;;;5015007;28;20049;-93
2022/08/02 06:44:02;;;;;;;5.15;2.15;;;23.90;99.90;;;;;;5014565;28;20053;-92
2022/08/02 06:46:28;;;;;;;3.83;2.13;;;24.10;99.90;;;;;;5015654;28;20107;-92
2022/08/02 06:48:54;;;;;;;4.55;2.30;;;24.30;99.90;;;;;;4981609;28;20042;-91
2022/08/02 06:51:21;;;;;;;5.65;2.40;;;23.90;99.90;;;;;;4984395;28;20042;-91
2022/08/02 06:53:47;;;;;;;4.43;2.30;;;24.40;99.90;;;;;;5002141;28;20045;-94
2022/08/02 06:56:12;;;;;;;4.93;2.30;;;24.30;99.90;;;;;;5018603;28;20563;-93
2022/08/02 06:58:38;;;;;;;6.10;2.33;;;24.10;99.90;;;;;;5019117;28;20037;-94
2022/08/02 07:01:06;;;;;;;6.28;2.15;;;24.40;99.90;;;;;;5002765;28;20096;-94
2022/08/02 07:03:35;;;;;;;6.15;2.45;;;24.50;99.90;;;;;;4988981;28;20050;-95
2022/08/02 07:06:01;;;;;;;5.38;2.47;;;24.60;99.90;;;;;;5008986;28;20041;-94
2022/08/02 07:08:31;;;;;;;7.35;2.40;;;24.60;99.90;;;;;;5007056;28;20076;-92
2022/08/02 07:11:03;;;;;;;6.30;1.95;;;24.70;99.90;;;;;;5025900;28;20065;-92
2022/08/02 07:13:29;;;;;;;4.70;2.17;;;24.60;99.90;;;;;;5004571;28;20080;-93
2022/08/02 07:15:55;;;;;;;5.45;2.40;;;24.90;99.90;;;;;;5031711;28;20042;-92
2022/08/02 07:18:21;;;;;;;3.10;1.85;;;25.30;99.90;;;;;;5022560;28;20125;-93
2022/08/02 07:20:47;;;;;;;3.05;1.80;;;25.80;99.90;;;;;;5000873;28;20060;-91
2022/08/02 07:23:13;;;;;;;4.70;1.90;;;25.60;99.90;;;;;;5018737;28;20057;-93
2022/08/02 07:25:39;;;;;;;2.22;1.80;;;25.90;99.90;;;;;;5015916;28;20049;-91
2022/08/02 07:28:04;;;;;;;4.70;1.80;;;26.00;99.90;;;;;;5014260;28;20060;-92
2022/08/02 07:30:31;;;;;;;2.97;1.73;;;25.90;99.90;;;;;;5015452;28;20044;-93
2022/08/02 07:32:58;;;;;;;3.60;1.85;;;25.70;99.90;;;;;;5014374;28;20045;-92
2022/08/02 07:35:23;;;;;;;5.72;1.90;;;24.90;99.90;;;;;;5022110;28;20556;-93
2022/08/02 07:37:49;;;;;;;3.15;1.83;;;24.40;99.90;;;;;;5004379;28;20085;-90
2022/08/02 07:40:15;;;;;;;3.08;1.70;;;24.40;99.90;;;;;;4989117;28;20045;-93
2022/08/02 07:42:41;;;;;;;5.13;1.70;;;24.60;99.90;;;;;;5003360;28;20053;-94
2022/08/02 07:45:07;;;;;;;5.15;1.80;;;25.00;99.90;;;;;;5032777;28;20378;-94
2022/08/02 07:47:36;;;;;;;3.25;1.48;;;25.40;99.90;;;;;;5021652;28;20040;-94
2022/08/02 07:50:02;;;;;;;3.95;1.50;;;25.80;99.90;;;;;;5026542;28;20042;-94
2022/08/02 07:52:28;;;;;;;5.60;1.60;;;26.00;99.90;;;;;;5022646;28;20045;-94
2022/08/02 07:54:56;;;;;;;2.75;1.50;;;26.50;99.90;;;;;;5036633;28;20041;-94
2022/08/02 07:57:22;;;;;;;5.50;1.50;;;26.50;99.60;;;;;;5019893;28;20053;-94
2022/08/02 07:59:47;;;;;;;2.17;1.42;;;26.70;99.40;;;;;;5017990;28;20485;-91
2022/08/02 08:02:13;;;;;;;2.03;1.40;;;25.40;99.00;;;;;;5016910;28;20057;-90
2022/08/02 08:04:39;;;;;;;2.90;1.30;;;26.70;99.40;;;;;;5017074;28;20073;-94
2022/08/02 08:07:08;;;;;;;3.72;1.30;;;26.70;98.80;;;;;;5018259;28;20398;-94
2022/08/02 08:09:39;;;;;;;3.97;1.38;;;27.30;98.30;;;;;;5035371;28;20508;-93
2022/08/02 08:12:08;;;;;;;2.72;1.50;;;27.10;98.50;;;;;;5035231;28;20045;-92
2022/08/02 08:14:34;;;;;;;4.10;1.35;;;27.50;99.00;;;;;;5004176;28;20049;-92
2022/08/02 08:17:00;;;;;;;2.45;1.25;;;26.90;98.50;;;;;;5003252;28;20041;-91
2022/08/02 08:19:26;;;;;;;3.13;1.33;;;27.40;98.70;;;;;;5038378;28;20061;-91
2022/08/02 08:21:51;;;;;;;2.03;1.23;;;27.00;98.30;;;;;;5023701;28;20041;-94
2022/08/02 08:24:19;;;;;;;2.92;1.38;;;27.00;97.40;;;;;;5024049;28;20045;-95
2022/08/02 08:26:45;;;;;;;4.88;1.25;;;26.90;96.70;;;;;;5011225;28;20567;-95
2022/08/02 08:29:13;;;;;;;3.60;1.40;;;26.80;97.60;;;;;;5020375;28;20053;-94
2022/08/02 08:31:39;;;;;;;2.45;1.20;;;27.10;96.60;;;;;;5037096;28;20060;-89
2022/08/02 08:34:05;;;;;;;2.10;1.10;;;27.00;96.80;;;;;;5014073;28;20041;-92
2022/08/02 08:36:30;;;;;;;2.20;1.13;;;27.70;96.30;;;;;;4981833;28;20053;-91
2022/08/02 08:38:56;;;;;;;1.42;1.27;;;27.90;97.00;;;;;;5012619;28;20509;-90
2022/08/02 08:41:22;;;;;;;2.78;1.30;;;28.10;96.00;;;;;;4988865;28;20045;-91
2022/08/02 08:43:47;;;;;;;2.00;1.25;;;28.20;94.60;;;;;;5011886;28;20041;-92
2022/08/02 08:46:28;;;;;;;1.23;1.02;;;27.90;96.20;;;;;;5009563;28;20096;-94
2022/08/02 08:49:08;;;;;;;2.55;1.15;;;28.10;96.30;;;;;;5010125;28;20135;-90
2022/08/02 08:51:39;;;;;;;2.67;0.98;;;27.70;95.30;;;;;;5011351;28;20046;-95
2022/08/02 08:54:06;;;;;;;4.13;1.38;;;27.50;96.00;;;;;;4976325;28;20054;-92
2022/08/02 08:56:33;;;;;;;3.75;1.65;;;28.00;96.40;;;;;;4993055;28;20124;-92
2022/08/02 08:59:05;;;;;;;2.47;1.30;;;27.80;96.40;;;;;;5002026;28;20133;-89
2022/08/02 09:01:31;;;;;;;2.80;1.25;;;27.50;96.00;;;;;;4977682;28;20081;-93
2022/08/02 09:03:57;;;;;;;1.67;1.10;;;27.90;96.30;;;;;;4976324;28;20088;-91
2022/08/02 09:06:25;;;;;;;2.00;1.17;;;27.60;95.60;;;;;;4970344;28;20072;-91
2022/08/02 09:08:54;;;;;;;5.90;1.73;;;28.70;96.30;;;;;;4992857;28;20042;-93
2022/08/02 09:11:24;;;;;;;2.28;1.17;;;28.20;96.30;;;;;;4973952;28;20053;-86
2022/08/02 09:13:53;;;;;;;2.45;1.10;;;28.70;95.10;;;;;;5009736;28;20057;-91
2022/08/02 09:17:12;;;;;;;2.67;1.17;;;28.60;95.40;;;;;;5051057;28;20038;-94
2022/08/02 09:19:48;;;;;;;3.65;1.48;;;28.00;95.80;;;;;;5038077;28;20708;-92
2022/08/02 09:22:21;;;;;;;3.20;1.48;;;28.80;96.50;;;;;;4989376;28;20046;-92
2022/08/02 09:24:50;;;;;;;1.30;1.20;;;28.20;95.60;;;;;;5013545;28;20057;-92
2022/08/02 09:30:12;;;;;;;3.03;1.33;;;29.20;95.30;;;;;;5025159;28;20053;-90
2022/08/02 09:32:49;;;;;;;2.05;1.27;;;29.50;94.90;;;;;;4978262;28;20448;-92
2022/08/02 09:35:38;;;;;;;3.65;1.48;;;29.20;95.90;;;;;;4998017;28;20049;-92
2022/08/02 09:38:11;;;;;;;3.58;1.20;;;29.30;95.70;;;;;;5002488;28;20045;-89
2022/08/02 09:40:38;;;;;;;1.98;1.20;;;29.40;94.50;;;;;;4965451;28;20049;-90
2022/08/02 09:43:04;;;;;;;1.77;1.17;;;29.50;94.80;;;;;;5013066;28;20461;-92
2022/08/02 09:45:33;;;;;;;3.28;1.40;;;29.50;95.10;;;;;;4964092;28;20053;-87
2022/08/02 09:48:16;;;;;;;2.03;1.35;;;28.70;94.90;;;;;;4980501;28;20069;-87
2022/08/02 09:50:42;;;;;;;1.50;1.38;;;29.10;95.80;;;;;;4998152;28;20084;-88
2022/08/02 09:53:14;;;;;;;2.35;1.35;;;29.60;95.20;;;;;;4998515;28;20138;-88
2022/08/02 09:55:40;;;;;;;2.45;1.20;;;29.30;94.60;;;;;;5016482;28;20058;-88
2022/08/02 09:58:19;;;;;;;2.67;1.30;;;29.00;96.00;;;;;;4999378;28;20490;-91
2022/08/02 10:00:53;;;;;;;4.93;1.40;;;28.20;96.20;;;;;;4982392;28;20038;-87
2022/08/02 10:03:19;;;;;;;4.93;1.55;;;28.30;95.50;;;;;;4998855;28;20188;-88
2022/08/02 10:05:48;;;;;;;1.52;1.15;;;28.40;96.40;;;;;;5031976;28;20132;-87
2022/08/02 10:08:14;;;;;;;3.20;1.55;;;28.50;95.40;;;;;;5015051;28;20397;-90
2022/08/02 10:10:41;;;;;;;2.22;1.63;;;28.80;95.80;;;;;;5016556;28;20045;-89
2022/08/02 10:13:07;;;;;;;1.90;1.60;;;28.70;95.60;;;;;;5014125;28;20076;-88
2022/08/02 10:15:32;;;;;;;1.90;1.40;;;28.90;95.90;;;;;;5014286;28;20555;-86
2022/08/02 10:17:59;;;;;;;2.80;1.48;;;28.90;96.10;;;;;;5015061;28;20053;-89
2022/08/02 10:20:24;;;;;;;3.05;1.50;;;28.70;96.10;;;;;;4982385;28;20156;-90
2022/08/02 10:22:50;;;;;;;2.30;1.85;;;28.70;96.30;;;;;;5014522;28;20049;-87
2022/08/02 10:25:16;;;;;;;4.60;2.20;;;28.40;96.00;;;;;;5013777;28;20050;-87
2022/08/02 10:27:41;;;;;;;3.05;1.70;;;29.20;96.60;;;;;;4998491;28;20049;-88
2022/08/02 10:30:08;;;;;;;2.42;2.10;;;29.30;96.90;;;;;;5014801;28;20140;-88
2022/08/02 10:32:40;;;;;;;3.03;2.00;;;29.20;96.50;;;;;;5013783;28;20053;-89
2022/08/02 10:35:25;;;;;;;3.30;2.05;;;29.60;96.80;;;;;;5014959;28;20512;-88
2022/08/02 10:37:57;;;;;;;3.58;2.28;;;29.50;96.40;;;;;;5017446;28;20052;-88
2022/08/02 10:40:23;;;;;;;3.50;2.13;;;29.00;96.40;;;;;;4966366;28;20052;-88
2022/08/02 10:42:50;;;;;;;2.35;2.15;;;29.10;97.00;;;;;;4998548;28;20042;-88
2022/08/02 10:45:17;;;;;;;8.00;2.47;;;28.70;97.20;;;;;;4998196;28;20061;-88
2022/08/02 10:48:04;;;;;;;3.38;2.10;;;28.40;97.70;;;;;;5014772;28;20056;-89
2022/08/02 10:50:45;;;;;;;3.97;2.20;;;29.10;97.90;;;;;;5014777;28;20050;-88
2022/08/02 10:53:30;;;;;;;3.65;2.53;;;29.20;97.70;;;;;;5030575;28;20092;-87
2022/08/02 10:56:00;;;;;;;5.07;2.65;;;29.30;97.30;;;;;;4982762;28;20132;-88
2022/08/02 10:58:28;;;;;;;5.68;2.50;;;29.30;98.00;;;;;;4998344;28;20045;-88
2022/08/02 11:00:54;;;;;;;4.78;3.10;;;29.20;98.00;;;;;;4966198;28;20061;-89
2022/08/02 11:03:38;;;;;;;2.67;2.20;;;28.70;97.80;;;;;;5014006;28;20058;-89
2022/08/02 11:06:08;;;;;;;4.95;2.60;;;29.00;98.10;;;;;;5014690;28;20042;-87
2022/08/02 11:08:34;;;;;;;4.55;2.60;;;29.30;98.00;;;;;;5014219;28;20068;-88
2022/08/02 11:11:13;;;;;;;2.67;2.30;;;29.70;97.90;;;;;;5031039;28;20485;-87
2022/08/02 11:14:03;;;;;;;4.38;2.78;;;29.70;97.70;;;;;;5017515;28;20076;-87
2022/08/02 11:16:56;;;;;;;3.10;2.78;;;29.20;97.90;;;;;;5014143;28;20053;-87
2022/08/02 11:19:22;;;;;;;;;;;29.10;98.30;;;;;;5031147;28;20179;-87
2022/08/02 11:22:09;;;;;;;5.32;2.50;;;29.00;98.30;;;;;;5013883;28;19975;-87
2022/08/02 11:24:38;;;;;;;5.38;2.88;;;28.80;98.00;;;;;;5014867;28;20083;-87
2022/08/02 11:27:05;;;;;;;3.20;2.28;;;29.00;98.70;;;;;;5002013;28;20089;-87
2022/08/02 11:29:32;;;;;;;3.90;2.03;;;28.60;97.80;;;;;;5017940;28;20053;-87
2022/08/02 11:31:58;;;;;;;2.67;2.05;;;28.40;98.30;;;;;;5017788;28;20405;-87
2022/08/02 11:34:24;;;;;;;2.85;2.35;;;28.60;98.80;;;;;;5017556;28;20042;-88
2022/08/02 11:36:50;;;;;;;3.88;2.50;;;28.30;98.30;;;;;;5001629;28;20536;-87
2022/08/02 11:39:17;;;;;;;2.72;2.28;;;28.50;98.40;;;;;;5001362;28;20060;-89
2022/08/02 11:41:48;;;;;;;3.67;2.28;;;28.70;98.60;;;;;;4984973;28;20144;-89
2022/08/02 11:44:14;;;;;;;6.28;2.58;;;28.80;98.80;;;;;;4985739;28;20050;-87
2022/08/02 11:46:39;;;;;;;3.60;2.20;;;28.90;98.20;;;;;;5016975;28;20204;-88
2022/08/02 11:49:16;;;;;;;4.00;2.20;;;28.70;99.30;;;;;;5001663;28;20397;-88
2022/08/02 11:52:06;;;;;;;3.38;2.60;;;28.80;98.70;;;;;;5017482;28;20049;-88
2022/08/02 11:54:33;;;;;;;4.90;2.40;;;29.00;99.00;;;;;;5017482;28;20156;-87
2022/08/02 11:57:19;;;;;;;4.32;2.80;;;28.90;98.90;;;;;;5001315;28;20423;-88
2022/08/02 11:59:49;;;;;;;3.83;2.40;;;28.90;98.30;;;;;;5017450;28;20049;-88
2022/08/02 12:02:15;;;;;;;3.80;2.20;;;28.60;98.80;;;;;;5000607;28;20057;-86
2022/08/02 12:04:41;;;;;;;2.60;2.20;;;28.30;99.10;;;;;;5000407;28;20048;-87
2022/08/02 12:07:07;;;;;;;5.15;2.50;;;28.30;99.10;;;;;;5000736;28;20650;-88
2022/08/02 12:09:33;;;;;;;3.92;2.40;;;28.60;99.60;;;;;;5017016;28;20056;-87
2022/08/02 12:12:01;;;;;;;3.03;2.17;;;28.80;99.40;;;;;;5017166;28;20092;-88
2022/08/02 12:14:28;;;;;;;4.05;2.30;;;28.80;98.60;;;;;;5016758;28;20046;-88
2022/08/02 12:19:38;;;;;;;2.08;1.83;;;28.90;98.70;;;;;;5005661;28;20049;-88
2022/08/02 12:22:18;;;;;;;2.13;2.03;;;28.90;98.30;;;;;;5017508;28;20512;-89
2022/08/02 12:24:48;;;;;;;3.90;2.03;;;28.90;99.40;;;;;;5001866;28;20049;-88
2022/08/02 12:27:36;;;;;;;3.65;2.22;;;28.90;98.30;;;;;;5018404;28;20046;-87
2022/08/02 12:30:06;;;;;;;2.40;1.85;;;28.50;98.70;;;;;;5016716;28;20076;-88
2022/08/02 12:32:32;;;;;;;2.17;1.92;;;28.50;99.50;;;;;;5033477;28;20516;-87
2022/08/02 12:35:01;;;;;;;1.80;1.70;;;28.40;99.30;;;;;;5000640;28;20050;-86
2022/08/02 12:37:27;;;;;;;2.67;2.10;;;28.30;99.90;;;;;;5016082;28;20049;-88
2022/08/02 12:39:54;;;;;;;1.73;1.63;;;28.20;99.10;;;;;;5032830;28;20056;-87
2022/08/02 12:42:19;;;;;;;2.50;2.20;;;28.20;98.90;;;;;;5016645;28;20132;-89
2022/08/02 12:44:53;;;;;;;2.75;1.83;;;28.50;98.80;;;;;;5016586;28;20128;-88
2022/08/02 12:47:20;;;;;;;2.00;1.75;;;28.70;99.60;;;;;;4969221;28;20041;-88
2022/08/02 12:49:47;;;;;;;2.38;1.90;;;27.90;98.70;;;;;;4967845;28;20448;-87
2022/08/02 12:52:22;;;;;;;2.33;1.90;;;27.70;98.60;;;;;;5016587;28;20049;-87
2022/08/02 12:54:48;;;;;;;2.05;1.70;;;27.90;99.00;;;;;;5000078;28;20064;-88
2022/08/02 12:57:15;;;;;;;3.08;1.90;;;28.00;99.80;;;;;;5016291;28;20045;-88
2022/08/02 12:59:43;;;;;;;4.03;1.95;;;27.70;99.90;;;;;;5015872;28;20053;-87
2022/08/02 13:02:09;;;;;;;3.78;2.30;;;27.50;99.90;;;;;;5015679;28;20076;-87
2022/08/02 13:04:35;;;;;;;2.42;2.17;;;27.40;99.90;;;;;;5016156;28;20135;-88
2022/08/02 13:07:01;;;;;;;3.03;2.08;;;27.50;99.90;;;;;;4967322;28;20478;-87